Time;durP1;ratioP1;P1;durP2;ratioP2;P2;SDS_P1;SDS_P2;PMS_P1;PMS_P2;Temp;Humidity;BMP_temperature;BMP_pressure;BME280_temperature;BME280_humidity;BME280_pressure;Samples;Min_cycle;Max_cycle;Signal;HPM_P1;HPM_P2
2022/07/22 00:01:19;;;;;;;8.20;3.10;;;25.00;99.90;;;;;;1973454;72;21629;-78
2022/07/22 00:03:50;;;;;;;7.42;3.60;;;25.10;99.90;;;;;;1987198;71;21565;-78
2022/07/22 00:06:21;;;;;;;5.90;2.70;;;25.00;99.90;;;;;;1982059;72;21135;-79
2022/07/22 00:08:52;;;;;;;3.75;2.83;;;25.10;99.90;;;;;;1973996;71;21645;-78
2022/07/22 00:11:24;;;;;;;5.50;3.05;;;25.10;99.90;;;;;;1948824;71;21704;-78
2022/07/22 00:13:58;;;;;;;4.50;2.87;;;25.00;99.90;;;;;;1965805;72;21186;-71
2022/07/22 00:16:29;;;;;;;4.53;2.95;;;25.00;99.90;;;;;;1977606;72;21188;-72
2022/07/22 00:19:01;;;;;;;5.17;3.30;;;25.00;99.90;;;;;;1960910;71;21617;-71
2022/07/22 00:21:32;;;;;;;4.85;3.65;;;25.10;99.90;;;;;;1976539;71;21131;-71
2022/07/22 00:24:03;;;;;;;7.15;3.40;;;25.10;99.90;;;;;;1952408;71;21080;-70
2022/07/22 00:26:34;;;;;;;3.85;3.05;;;25.10;99.90;;;;;;1974537;71;21151;-71
2022/07/22 00:29:05;;;;;;;4.37;3.02;;;25.10;99.90;;;;;;1964314;71;21168;-72
2022/07/22 00:31:36;;;;;;;5.53;3.20;;;25.20;99.90;;;;;;1934495;72;21053;-70
2022/07/22 00:34:08;;;;;;;4.22;3.27;;;25.20;99.90;;;;;;1979646;71;21049;-71
2022/07/22 00:36:40;;;;;;;5.53;3.08;;;25.20;99.90;;;;;;1979568;72;21637;-72
2022/07/22 00:39:11;;;;;;;4.78;3.33;;;25.30;99.90;;;;;;1970681;72;21060;-72
2022/07/22 00:41:42;;;;;;;5.15;3.40;;;25.30;99.90;;;;;;1979335;72;21725;-70
2022/07/22 00:44:14;;;;;;;4.20;3.40;;;25.30;99.90;;;;;;1981857;72;21113;-72
2022/07/22 00:46:46;;;;;;;6.97;3.12;;;25.40;99.90;;;;;;1977872;71;21161;-72
2022/07/22 00:49:17;;;;;;;4.45;3.10;;;25.40;99.90;;;;;;1969982;71;21064;-72
2022/07/22 00:51:49;;;;;;;5.58;3.22;;;25.40;99.90;;;;;;1975311;71;21839;-71
2022/07/22 00:54:20;;;;;;;4.95;3.12;;;25.50;99.90;;;;;;1946311;72;21077;-70
2022/07/22 00:56:51;;;;;;;4.67;3.10;;;25.50;99.90;;;;;;1936243;73;21147;-71
2022/07/22 00:59:22;;;;;;;7.03;3.45;;;25.50;99.90;;;;;;1884119;74;21229;-71
2022/07/22 01:01:53;;;;;;;3.40;2.83;;;25.50;99.90;;;;;;1946597;73;21141;-70
2022/07/22 01:04:24;;;;;;;4.33;3.40;;;25.50;99.90;;;;;;1970787;72;21627;-71
2022/07/22 01:06:55;;;;;;;4.42;3.15;;;25.50;99.90;;;;;;1986205;72;21490;-71
2022/07/22 01:09:26;;;;;;;5.17;3.37;;;25.50;99.90;;;;;;1977112;70;21206;-69
2022/07/22 01:11:57;;;;;;;5.33;2.83;;;25.60;99.90;;;;;;1977302;72;21173;-70
2022/07/22 01:14:28;;;;;;;3.72;3.12;;;25.60;99.90;;;;;;1979296;72;21566;-70
2022/07/22 01:17:00;;;;;;;3.85;2.85;;;25.60;99.90;;;;;;1976640;72;21192;-71
2022/07/22 01:19:31;;;;;;;3.22;2.90;;;25.70;99.90;;;;;;1976154;71;21075;-71
2022/07/22 01:22:03;;;;;;;4.12;3.17;;;25.80;99.90;;;;;;1978050;72;21258;-71
2022/07/22 01:24:34;;;;;;;4.60;2.70;;;25.90;99.90;;;;;;1968039;72;21559;-72
2022/07/22 01:27:05;;;;;;;4.08;2.75;;;26.00;99.90;;;;;;1976186;72;21180;-71
2022/07/22 01:29:36;;;;;;;3.87;2.80;;;26.10;99.90;;;;;;1977657;70;21119;-70
2022/07/22 01:32:08;;;;;;;4.10;2.42;;;26.10;99.90;;;;;;1948661;72;21930;-71
2022/07/22 01:34:39;;;;;;;4.78;2.65;;;26.30;99.90;;;;;;1963663;72;21646;-72
2022/07/22 01:37:10;;;;;;;5.12;3.10;;;26.40;99.90;;;;;;1956906;71;21616;-72
2022/07/22 01:39:42;;;;;;;3.72;2.12;;;26.50;99.90;;;;;;1982270;72;21651;-70
2022/07/22 01:42:13;;;;;;;4.28;2.00;;;26.60;99.90;;;;;;1954095;72;21590;-69
2022/07/22 01:44:44;;;;;;;3.35;2.20;;;26.60;99.90;;;;;;1973104;72;21085;-69
2022/07/22 01:47:15;;;;;;;5.55;2.20;;;26.60;99.90;;;;;;1959311;72;21153;-69
2022/07/22 01:49:46;;;;;;;3.00;2.02;;;26.60;99.90;;;;;;1951713;71;21728;-70
2022/07/22 01:52:19;;;;;;;2.98;2.02;;;26.50;99.90;;;;;;1946585;72;21202;-71
2022/07/22 01:54:50;;;;;;;3.55;1.70;;;26.50;99.90;;;;;;1959415;72;21196;-71
2022/07/22 01:57:21;;;;;;;4.37;1.85;;;26.40;99.90;;;;;;1957905;71;21268;-70
2022/07/22 01:59:53;;;;;;;2.65;2.02;;;26.40;99.90;;;;;;1963466;71;21088;-69
2022/07/22 02:02:24;;;;;;;3.83;2.00;;;26.40;99.90;;;;;;1935791;72;21144;-71
2022/07/22 02:04:55;;;;;;;3.62;1.87;;;26.40;99.90;;;;;;1977349;72;21091;-70
2022/07/22 02:07:26;;;;;;;2.10;1.70;;;26.40;99.90;;;;;;1960309;71;21134;-71
2022/07/22 02:09:57;;;;;;;2.70;1.80;;;26.40;99.90;;;;;;1954952;72;21185;-71
2022/07/22 02:12:29;;;;;;;3.22;2.05;;;26.50;99.90;;;;;;1952187;72;21672;-70
2022/07/22 02:15:00;;;;;;;2.80;1.75;;;26.60;99.90;;;;;;1969087;72;21253;-71
2022/07/22 02:17:30;;;;;;;4.35;2.10;;;26.60;99.90;;;;;;1925608;73;22320;-71
2022/07/22 02:20:02;;;;;;;3.05;2.20;;;26.70;99.90;;;;;;1956848;72;21177;-73
2022/07/22 02:22:33;;;;;;;3.40;2.20;;;26.80;99.90;;;;;;1916858;73;21184;-71
2022/07/22 02:25:04;;;;;;;3.10;2.20;;;26.90;99.90;;;;;;1928302;73;21171;-69
2022/07/22 02:27:35;;;;;;;4.95;2.30;;;27.00;99.90;;;;;;1973021;72;21228;-71
2022/07/22 02:30:07;;;;;;;4.97;2.22;;;27.00;99.90;;;;;;1962891;72;21186;-70
2022/07/22 02:32:38;;;;;;;4.92;2.87;;;27.10;99.90;;;;;;1952719;72;21179;-71
2022/07/22 02:35:10;;;;;;;3.05;2.35;;;27.10;99.90;;;;;;1958892;71;21068;-70
2022/07/22 02:37:41;;;;;;;3.85;2.52;;;27.00;99.90;;;;;;1973061;71;21116;-69
2022/07/22 02:40:12;;;;;;;4.33;2.30;;;27.00;99.90;;;;;;1950209;72;21248;-70
2022/07/22 02:42:44;;;;;;;4.22;2.70;;;27.00;99.90;;;;;;1954766;73;21077;-69
2022/07/22 02:45:15;;;;;;;3.60;2.25;;;27.00;99.90;;;;;;1955687;72;21191;-71
2022/07/22 02:47:48;;;;;;;5.60;3.65;;;27.10;99.90;;;;;;1926695;73;21516;-70
2022/07/22 02:50:19;;;;;;;4.92;2.58;;;27.10;99.90;;;;;;1920123;73;21093;-69
2022/07/22 02:52:51;;;;;;;2.77;2.27;;;27.20;99.90;;;;;;1936822;73;21159;-70
2022/07/22 02:55:22;;;;;;;2.95;1.98;;;27.30;99.90;;;;;;1920008;73;21166;-70
2022/07/22 02:57:53;;;;;;;2.77;2.00;;;27.40;99.90;;;;;;1923566;74;21115;-70
2022/07/22 03:00:24;;;;;;;4.50;2.20;;;27.50;99.90;;;;;;1921737;73;21619;-70
2022/07/22 03:02:55;;;;;;;2.37;1.82;;;27.60;99.90;;;;;;1923043;74;21525;-71
2022/07/22 03:05:26;;;;;;;4.67;2.17;;;27.70;99.90;;;;;;1901087;74;21629;-72
2022/07/22 03:07:57;;;;;;;3.35;2.40;;;27.70;99.90;;;;;;1957552;71;21629;-71
2022/07/22 03:10:28;;;;;;;3.60;2.35;;;27.70;99.90;;;;;;1959184;72;21132;-71
2022/07/22 03:12:59;;;;;;;2.33;2.00;;;27.80;99.90;;;;;;1962230;72;21635;-71
2022/07/22 03:15:30;;;;;;;4.97;2.60;;;27.80;99.90;;;;;;1952575;72;21568;-70
2022/07/22 03:18:03;;;;;;;4.12;2.42;;;27.90;99.90;;;;;;1947701;71;21134;-71
2022/07/22 03:20:34;;;;;;;3.85;2.12;;;28.00;99.90;;;;;;1955484;72;21114;-70
2022/07/22 03:23:05;;;;;;;2.58;2.02;;;28.00;99.90;;;;;;1958064;72;21171;-69
2022/07/22 03:25:39;;;;;;;2.80;2.10;;;28.10;99.90;;;;;;1952071;72;21583;-70
2022/07/22 03:28:09;;;;;;;4.37;2.33;;;28.10;99.90;;;;;;1950845;72;21520;-71
2022/07/22 03:30:40;;;;;;;3.45;2.22;;;28.10;99.90;;;;;;1961778;72;21116;-70
2022/07/22 03:33:11;;;;;;;3.12;2.00;;;28.00;99.90;;;;;;1961376;72;21744;-70
2022/07/22 03:35:42;;;;;;;2.30;1.98;;;28.00;99.90;;;;;;1937784;72;21091;-71
2022/07/22 03:38:13;;;;;;;3.85;2.35;;;28.00;99.90;;;;;;1928802;73;21167;-72
2022/07/22 03:40:44;;;;;;;4.45;2.02;;;27.90;99.90;;;;;;1941582;72;21154;-72
2022/07/22 03:43:15;;;;;;;3.05;2.05;;;27.90;99.90;;;;;;1963258;72;21055;-70
2022/07/22 03:45:46;;;;;;;5.17;2.33;;;27.80;99.90;;;;;;1951113;71;21115;-72
2022/07/22 03:48:17;;;;;;;3.02;2.05;;;27.80;99.90;;;;;;1970503;72;21214;-69
2022/07/22 03:50:50;;;;;;;3.05;2.20;;;27.80;99.90;;;;;;1930114;73;21236;-70
2022/07/22 03:53:21;;;;;;;4.17;2.27;;;27.90;99.90;;;;;;1973453;72;21575;-70
2022/07/22 03:55:53;;;;;;;3.52;2.20;;;27.90;99.90;;;;;;1958614;72;21595;-71
2022/07/22 03:58:24;;;;;;;3.85;2.17;;;28.00;99.90;;;;;;1925198;73;21137;-71
2022/07/22 04:01:00;;;;;;;4.25;2.75;;;28.10;99.90;;;;;;1868448;75;21216;-71
2022/07/22 04:03:28;;;;;;;3.77;2.30;;;28.20;99.90;;;;;;1904167;74;21458;-72
2022/07/22 04:06:00;;;;;;;3.10;2.22;;;28.10;99.90;;;;;;1926339;73;21614;-71
2022/07/22 04:08:31;;;;;;;5.62;2.10;;;28.10;99.90;;;;;;1903632;74;21163;-71
2022/07/22 04:11:02;;;;;;;2.65;1.92;;;28.20;99.90;;;;;;1861132;75;21131;-71
2022/07/22 04:13:33;;;;;;;3.00;1.57;;;28.30;99.90;;;;;;1920128;73;21198;-70
2022/07/22 04:16:04;;;;;;;4.45;2.25;;;28.40;99.90;;;;;;1899111;73;21716;-71
2022/07/22 04:18:36;;;;;;;4.55;2.02;;;28.50;99.90;;;;;;1971030;71;21539;-71
2022/07/22 04:21:07;;;;;;;4.10;2.00;;;28.60;99.90;;;;;;1963321;72;21118;-71
2022/07/22 04:23:39;;;;;;;3.62;2.17;;;28.70;99.90;;;;;;1944506;71;21159;-70
2022/07/22 04:26:11;;;;;;;3.90;1.98;;;28.80;99.90;;;;;;1966958;72;21676;-71
2022/07/22 04:28:42;;;;;;;4.37;1.90;;;28.70;99.90;;;;;;1963444;72;21563;-71
2022/07/22 04:31:13;;;;;;;3.35;2.30;;;28.60;99.90;;;;;;1948968;72;21122;-70
2022/07/22 04:33:44;;;;;;;2.60;2.30;;;28.50;99.90;;;;;;1972208;72;21066;-71
2022/07/22 04:36:15;;;;;;;4.33;2.12;;;28.50;99.90;;;;;;1967188;72;21180;-71
2022/07/22 04:38:46;;;;;;;3.83;2.05;;;28.40;99.90;;;;;;1968851;72;21182;-71
2022/07/22 04:41:17;;;;;;;3.55;2.37;;;28.50;99.90;;;;;;1972430;72;21109;-72
2022/07/22 04:43:49;;;;;;;5.05;2.15;;;28.60;99.90;;;;;;1975496;72;21154;-71
2022/07/22 04:46:20;;;;;;;4.30;2.20;;;28.90;99.90;;;;;;1952565;72;21156;-72
2022/07/22 04:48:51;;;;;;;3.87;2.10;;;29.20;99.90;;;;;;1966463;72;21085;-71
2022/07/22 04:51:24;;;;;;;2.25;1.90;;;29.40;99.90;;;;;;1966909;72;21222;-71
2022/07/22 04:53:56;;;;;;;2.95;1.90;;;29.50;99.90;;;;;;1964411;72;21673;-71
2022/07/22 04:56:27;;;;;;;4.83;2.20;;;29.60;99.90;;;;;;1957794;72;21072;-71
2022/07/22 04:58:58;;;;;;;4.28;2.15;;;29.60;99.90;;;;;;1956239;71;21144;-73
2022/07/22 05:01:30;;;;;;;4.85;2.40;;;29.50;99.90;;;;;;1934829;73;21232;-72
2022/07/22 05:04:01;;;;;;;6.10;3.10;;;29.50;99.90;;;;;;1973560;71;21193;-71
2022/07/22 05:06:32;;;;;;;3.77;2.33;;;29.70;99.90;;;;;;1935919;71;21166;-71
2022/07/22 05:09:03;;;;;;;2.50;1.70;;;29.90;99.90;;;;;;1932873;73;21080;-71
2022/07/22 05:11:34;;;;;;;2.45;1.52;;;30.00;99.90;;;;;;1960569;72;21057;-72
2022/07/22 05:14:05;;;;;;;2.37;1.85;;;30.20;99.90;;;;;;1931827;73;21075;-72
2022/07/22 05:16:38;;;;;;;1.60;1.40;;;30.30;99.90;;;;;;1947975;72;21754;-71
2022/07/22 05:19:09;;;;;;;3.52;1.98;;;30.40;99.90;;;;;;1949276;72;21150;-70
2022/07/22 05:21:40;;;;;;;4.20;1.82;;;30.50;99.90;;;;;;1905507;73;21175;-72
2022/07/22 05:24:31;;;;;;;3.45;1.77;;;30.50;99.80;;;;;;1884948;75;21061;-73
2022/07/22 05:27:04;;;;;;;3.30;2.25;;;30.40;99.90;;;;;;1781006;79;21132;-71
2022/07/22 05:29:40;;;;;;;4.15;2.05;;;30.30;99.90;;;;;;1807893;78;21201;-71
2022/07/22 05:32:11;;;;;;;4.45;2.00;;;30.20;99.70;;;;;;1848050;77;21152;-74
2022/07/22 05:34:45;;;;;;;2.17;1.57;;;30.00;99.80;;;;;;1847128;76;21102;-71
2022/07/22 05:37:28;;;;;;;3.55;1.90;;;29.90;99.90;;;;;;1858493;76;21189;-72
2022/07/22 05:40:02;;;;;;;3.30;1.80;;;29.80;99.90;;;;;;1848925;77;21225;-72
2022/07/22 05:42:35;;;;;;;2.67;1.87;;;29.70;99.90;;;;;;1855926;77;21117;-71
2022/07/22 05:45:06;;;;;;;5.87;2.00;;;29.50;99.90;;;;;;1847599;76;21183;-71
2022/07/22 05:47:37;;;;;;;3.37;1.70;;;29.50;99.90;;;;;;1849338;77;21250;-70
2022/07/22 05:50:08;;;;;;;3.15;1.80;;;29.50;99.90;;;;;;1824404;77;21091;-71
2022/07/22 05:52:40;;;;;;;2.52;2.08;;;29.50;99.90;;;;;;1809531;78;21177;-70
2022/07/22 05:55:11;;;;;;;2.35;1.87;;;29.50;99.90;;;;;;1791864;78;21213;-70
2022/07/22 05:57:42;;;;;;;4.25;1.87;;;29.40;99.90;;;;;;1852498;76;21701;-71
2022/07/22 06:00:15;;;;;;;3.47;2.02;;;29.40;99.90;;;;;;1852321;76;21228;-71
2022/07/22 06:02:45;;;;;;;2.83;1.52;;;29.30;99.90;;;;;;1858520;76;21090;-71
2022/07/22 06:05:16;;;;;;;8.30;4.33;;;29.30;99.90;;;;;;1854145;76;21159;-72
2022/07/22 06:07:49;;;;;;;5.62;3.20;;;29.30;99.90;;;;;;1848267;77;21113;-70
2022/07/22 06:10:20;;;;;;;4.92;2.52;;;29.00;99.90;;;;;;1841881;77;21570;-70
2022/07/22 06:12:51;;;;;;;8.28;3.65;;;28.70;99.90;;;;;;1838112;77;21608;-71
2022/07/22 06:15:22;;;;;;;5.75;2.87;;;28.50;99.90;;;;;;1856382;76;21686;-71
2022/07/22 06:17:55;;;;;;;5.97;2.80;;;28.30;99.90;;;;;;1760150;79;21842;-72
2022/07/22 06:20:25;;;;;;;4.08;2.83;;;28.20;99.90;;;;;;1785531;80;21194;-71
2022/07/22 06:22:57;;;;;;;4.60;2.67;;;28.10;99.90;;;;;;1803640;78;21559;-71
2022/07/22 06:25:28;;;;;;;5.85;2.72;;;28.00;99.90;;;;;;1783251;79;21201;-72
2022/07/22 06:28:01;;;;;;;7.37;3.10;;;27.80;99.90;;;;;;1779881;80;21151;-70
2022/07/22 06:30:32;;;;;;;5.30;3.05;;;27.70;99.90;;;;;;1812112;77;21200;-71
2022/07/22 06:33:03;;;;;;;8.45;3.83;;;27.60;99.90;;;;;;1845200;77;21162;-71
2022/07/22 06:35:34;;;;;;;5.33;3.00;;;27.50;99.90;;;;;;1851232;77;21670;-71
2022/07/22 06:38:05;;;;;;;4.33;2.12;;;27.50;99.90;;;;;;1861632;76;21832;-71
2022/07/22 06:40:36;;;;;;;4.30;2.67;;;27.40;99.90;;;;;;1844491;76;21151;-72
2022/07/22 06:43:07;;;;;;;4.28;2.90;;;27.40;99.90;;;;;;1853279;76;21276;-72
2022/07/22 06:45:39;;;;;;;7.15;2.90;;;27.40;99.90;;;;;;1863149;76;21083;-72
2022/07/22 06:48:09;;;;;;;5.35;2.90;;;27.40;99.90;;;;;;1847696;77;21188;-72
2022/07/22 06:50:41;;;;;;;5.53;2.60;;;27.40;99.90;;;;;;1850285;76;21112;-71
2022/07/22 06:53:13;;;;;;;4.12;2.00;;;27.40;99.90;;;;;;1857750;76;21672;-71
2022/07/22 06:55:44;;;;;;;4.20;2.37;;;27.40;99.90;;;;;;1844767;76;21126;-71
2022/07/22 06:58:15;;;;;;;2.75;2.10;;;27.30;99.90;;;;;;1846747;76;21179;-72
2022/07/22 07:00:47;;;;;;;4.42;1.82;;;27.20;99.90;;;;;;1846481;76;21150;-71
2022/07/22 07:03:18;;;;;;;4.12;2.00;;;27.10;99.90;;;;;;1832338;76;21138;-71
2022/07/22 07:05:50;;;;;;;2.33;2.05;;;27.10;99.90;;;;;;1858196;76;21125;-72
2022/07/22 07:08:22;;;;;;;5.03;2.20;;;27.10;99.90;;;;;;1851790;76;21602;-73
2022/07/22 07:10:53;;;;;;;4.08;2.10;;;27.10;99.90;;;;;;1859896;76;21100;-71
2022/07/22 07:13:25;;;;;;;3.90;2.27;;;27.10;99.90;;;;;;1861958;76;21145;-72
2022/07/22 07:15:56;;;;;;;5.22;2.30;;;27.10;99.90;;;;;;1838920;76;21150;-72
2022/07/22 07:18:28;;;;;;;5.83;2.87;;;27.10;99.90;;;;;;1826367;76;21592;-72
2022/07/22 07:20:59;;;;;;;3.45;2.10;;;27.10;99.90;;;;;;1859212;75;21711;-72
2022/07/22 07:23:30;;;;;;;4.33;2.37;;;27.10;99.90;;;;;;1853755;75;21209;-71
2022/07/22 07:26:00;;;;;;;3.37;2.05;;;27.10;99.90;;;;;;1862545;75;21225;-72
2022/07/22 07:28:32;;;;;;;3.62;2.30;;;27.10;99.90;;;;;;1834103;77;21332;-73
2022/07/22 07:31:03;;;;;;;3.65;2.37;;;27.10;99.90;;;;;;1843580;76;21147;-72
2022/07/22 07:33:35;;;;;;;5.97;2.62;;;27.20;99.90;;;;;;1834231;77;21575;-72
2022/07/22 07:36:06;;;;;;;6.12;2.80;;;27.20;99.90;;;;;;1831378;76;21654;-72
2022/07/22 07:38:38;;;;;;;5.75;2.70;;;27.30;99.90;;;;;;1842371;76;21603;-72
2022/07/22 07:41:09;;;;;;;3.67;2.22;;;27.30;99.90;;;;;;1830047;77;21842;-72
2022/07/22 07:43:40;;;;;;;3.42;2.30;;;27.30;99.90;;;;;;1832040;77;21707;-72
2022/07/22 07:46:10;;;;;;;4.17;3.30;;;27.40;99.90;;;;;;1852759;75;21143;-73
2022/07/22 07:48:41;;;;;;;3.62;2.20;;;27.40;99.90;;;;;;1798526;78;21166;-72
2022/07/22 07:51:13;;;;;;;11.97;4.05;;;27.40;99.90;;;;;;1782269;79;21165;-71
2022/07/22 07:53:44;;;;;;;8.53;3.62;;;27.30;99.90;;;;;;1849996;75;21157;-72
2022/07/22 07:56:15;;;;;;;6.05;3.47;;;27.40;99.90;;;;;;1842456;76;21224;-71
2022/07/22 07:58:46;;;;;;;5.08;3.35;;;27.40;99.90;;;;;;1836473;76;21095;-72
2022/07/22 08:01:18;;;;;;;4.47;3.40;;;27.40;99.90;;;;;;1854374;76;21225;-72
2022/07/22 08:03:55;;;;;;;4.22;3.40;;;27.30;99.90;;;;;;1836519;76;21108;-73
2022/07/22 08:06:24;;;;;;;4.30;2.55;;;27.40;99.90;;;;;;1845408;76;21605;-72
2022/07/22 08:08:55;;;;;;;3.67;2.25;;;27.40;99.90;;;;;;1845681;76;21249;-73
2022/07/22 08:11:27;;;;;;;3.67;2.27;;;27.30;99.90;;;;;;1801747;77;21804;-72
2022/07/22 08:13:58;;;;;;;2.90;2.10;;;27.30;99.90;;;;;;1852491;77;21204;-71
2022/07/22 08:16:29;;;;;;;5.12;2.25;;;27.30;99.90;;;;;;1854066;76;21129;-73
2022/07/22 08:19:00;;;;;;;3.45;2.50;;;27.30;99.90;;;;;;1805844;77;21189;-71
2022/07/22 08:21:45;;;;;;;4.03;2.00;;;27.30;99.90;;;;;;1852800;76;21397;-70
2022/07/22 08:24:09;;;;;;;3.25;2.60;;;27.30;99.90;;;;;;1779218;79;21129;-72
2022/07/22 08:26:41;;;;;;;5.15;2.30;;;27.30;99.90;;;;;;1848864;76;21180;-74
2022/07/22 08:29:12;;;;;;;4.08;2.50;;;27.40;99.90;;;;;;1849240;76;21197;-74
2022/07/22 08:31:43;;;;;;;4.58;2.52;;;27.40;99.90;;;;;;1854550;76;21098;-72
2022/07/22 08:34:15;;;;;;;3.15;2.58;;;27.40;99.90;;;;;;1852429;76;21177;-71
2022/07/22 08:36:46;;;;;;;3.05;2.20;;;27.40;99.90;;;;;;1843456;76;21126;-71
2022/07/22 08:39:17;;;;;;;4.20;2.67;;;27.40;99.90;;;;;;1843487;76;21175;-72
2022/07/22 08:41:50;;;;;;;3.67;2.55;;;27.50;99.90;;;;;;1846770;75;21147;-73
2022/07/22 08:44:22;;;;;;;4.10;2.35;;;27.50;99.90;;;;;;1842519;76;21210;-72
2022/07/22 08:46:55;;;;;;;4.15;2.62;;;27.50;99.90;;;;;;1859546;75;21136;-73
2022/07/22 08:49:28;;;;;;;6.75;2.70;;;27.50;99.90;;;;;;1851578;75;21152;-72
2022/07/22 08:52:01;;;;;;;4.33;2.60;;;27.50;99.90;;;;;;1841283;76;21178;-73
2022/07/22 08:54:32;;;;;;;3.58;2.35;;;27.50;99.90;;;;;;1844295;76;21199;-72
2022/07/22 08:57:04;;;;;;;4.95;2.67;;;27.50;99.90;;;;;;1836639;76;21129;-72
2022/07/22 08:59:39;;;;;;;4.60;2.22;;;27.40;99.90;;;;;;1855363;76;21198;-72
2022/07/22 09:02:11;;;;;;;3.70;1.98;;;27.40;99.90;;;;;;1849416;76;21194;-73
2022/07/22 09:04:45;;;;;;;3.65;2.00;;;27.40;99.90;;;;;;1846846;76;21135;-72
2022/07/22 09:07:18;;;;;;;5.40;2.42;;;27.40;99.90;;;;;;1841276;76;21126;-72
2022/07/22 09:09:49;;;;;;;3.87;2.30;;;27.40;99.90;;;;;;1831974;77;21195;-72
2022/07/22 09:12:22;;;;;;;5.97;2.50;;;27.40;99.90;;;;;;1851374;75;21688;-72
2022/07/22 09:14:55;;;;;;;7.25;2.52;;;27.40;99.90;;;;;;1848951;76;21167;-73
2022/07/22 09:17:28;;;;;;;4.08;2.60;;;27.40;99.90;;;;;;1829480;76;21225;-73
2022/07/22 09:20:01;;;;;;;5.42;2.20;;;27.40;99.90;;;;;;1834945;76;21198;-74
2022/07/22 09:22:34;;;;;;;3.72;2.40;;;27.40;99.90;;;;;;1855982;76;21693;-72
2022/07/22 09:25:07;;;;;;;4.90;2.37;;;27.30;99.90;;;;;;1848406;75;21193;-71
2022/07/22 09:27:39;;;;;;;3.83;2.00;;;27.20;99.90;;;;;;1845444;76;21139;-72
2022/07/22 09:30:13;;;;;;;8.18;2.90;;;27.10;99.90;;;;;;1844823;76;21704;-72
2022/07/22 09:32:46;;;;;;;8.73;2.87;;;26.90;99.90;;;;;;1851367;76;21093;-71
2022/07/22 09:35:19;;;;;;;4.60;2.25;;;26.80;99.90;;;;;;1853623;76;21183;-72
2022/07/22 09:37:52;;;;;;;4.50;2.10;;;26.70;99.90;;;;;;1841849;75;21621;-72
2022/07/22 09:40:25;;;;;;;7.50;2.12;;;26.40;99.90;;;;;;1841186;76;21096;-72
2022/07/22 09:42:59;;;;;;;4.12;1.75;;;26.20;99.90;;;;;;1841673;76;21704;-71
2022/07/22 09:45:32;;;;;;;6.28;2.35;;;26.00;99.90;;;;;;1844506;76;21762;-72
2022/07/22 09:48:04;;;;;;;5.17;1.98;;;26.00;99.90;;;;;;1843278;76;21148;-72
2022/07/22 09:50:35;;;;;;;5.78;2.55;;;25.90;99.90;;;;;;1844288;76;21254;-73
2022/07/22 09:53:07;;;;;;;4.97;2.20;;;25.80;99.90;;;;;;1853704;75;21409;-73
2022/07/22 09:55:40;;;;;;;5.60;2.22;;;25.70;99.90;;;;;;1840996;76;21590;-71
2022/07/22 09:58:12;;;;;;;4.03;1.95;;;25.70;99.90;;;;;;1843990;75;21208;-73
2022/07/22 10:00:43;;;;;;;4.08;1.67;;;25.60;99.90;;;;;;1853315;76;21196;-72
2022/07/22 10:03:17;;;;;;;4.58;2.10;;;25.50;99.90;;;;;;1841882;77;21137;-73
2022/07/22 10:05:49;;;;;;;3.85;2.08;;;25.50;99.90;;;;;;1845034;76;21585;-73
2022/07/22 10:08:20;;;;;;;6.92;2.02;;;25.50;99.90;;;;;;1846112;76;21287;-73
2022/07/22 10:10:52;;;;;;;3.37;1.70;;;25.50;99.90;;;;;;1850583;76;21216;-73
2022/07/22 10:13:23;;;;;;;6.53;2.42;;;25.50;99.90;;;;;;1852782;76;21637;-73
2022/07/22 10:15:57;;;;;;;5.78;2.40;;;25.40;99.90;;;;;;1852098;76;21153;-72
2022/07/22 10:18:29;;;;;;;4.53;2.08;;;25.30;99.90;;;;;;1853833;76;21147;-73
2022/07/22 10:21:03;;;;;;;5.72;2.60;;;25.40;99.90;;;;;;1843465;76;21716;-74
2022/07/22 10:23:34;;;;;;;5.20;2.05;;;25.30;99.90;;;;;;1808341;77;21262;-73
2022/07/22 10:26:05;;;;;;;5.05;2.40;;;25.40;99.90;;;;;;1784666;79;21244;-72
2022/07/22 10:28:38;;;;;;;4.17;2.05;;;25.40;99.90;;;;;;1812459;77;21660;-73
2022/07/22 10:31:11;;;;;;;5.37;2.45;;;25.40;99.90;;;;;;1850740;76;21171;-72
2022/07/22 10:33:42;;;;;;;7.55;2.30;;;25.50;99.90;;;;;;1795528;79;21234;-72
2022/07/22 10:36:13;;;;;;;4.97;2.52;;;25.50;99.90;;;;;;1846900;75;21584;-72
2022/07/22 10:38:47;;;;;;;3.25;2.00;;;25.50;99.90;;;;;;1853894;75;21688;-72
2022/07/22 10:41:20;;;;;;;2.92;2.00;;;25.50;99.90;;;;;;1853643;75;21199;-72
2022/07/22 10:43:51;;;;;;;6.28;2.15;;;25.50;99.90;;;;;;1845411;76;21532;-72
2022/07/22 10:46:25;;;;;;;3.27;2.00;;;25.50;99.90;;;;;;1855595;76;21589;-71
2022/07/22 10:48:57;;;;;;;2.60;1.70;;;25.60;99.90;;;;;;1839486;77;21163;-72
2022/07/22 10:51:28;;;;;;;3.75;2.02;;;25.70;99.90;;;;;;1846565;76;21229;-72
2022/07/22 10:54:02;;;;;;;3.58;2.00;;;25.60;99.90;;;;;;1784641;79;21276;-71
2022/07/22 10:56:35;;;;;;;6.72;2.45;;;25.60;99.90;;;;;;1788699;78;21677;-72
2022/07/22 10:59:09;;;;;;;3.98;2.40;;;25.50;99.90;;;;;;1781599;79;21268;-73
2022/07/22 11:01:43;;;;;;;5.08;2.35;;;25.40;99.90;;;;;;1851389;76;21812;-72
2022/07/22 11:04:16;;;;;;;6.67;2.90;;;25.40;99.90;;;;;;1847771;76;21587;-71
2022/07/22 11:06:50;;;;;;;4.80;2.50;;;25.40;99.90;;;;;;1838140;76;21503;-72
2022/07/22 11:09:23;;;;;;;4.42;2.40;;;25.50;99.90;;;;;;1786710;78;22190;-72
2022/07/22 11:11:56;;;;;;;4.67;2.65;;;25.50;99.90;;;;;;1829259;76;21096;-72
2022/07/22 11:14:30;;;;;;;5.67;3.05;;;25.50;99.90;;;;;;1847296;75;21159;-72
2022/07/22 11:17:03;;;;;;;5.35;3.08;;;25.50;99.90;;;;;;1847491;75;21148;-72
2022/07/22 11:19:37;;;;;;;6.53;2.70;;;25.50;99.90;;;;;;1851508;75;21657;-71
2022/07/22 11:22:10;;;;;;;5.55;2.58;;;25.50;99.90;;;;;;1836820;77;21637;-72
2022/07/22 11:24:42;;;;;;;4.12;2.50;;;25.50;99.90;;;;;;1807664;78;21208;-72
2022/07/22 11:27:15;;;;;;;4.60;2.90;;;25.50;99.90;;;;;;1847536;76;21160;-73
2022/07/22 11:29:49;;;;;;;4.87;2.55;;;25.50;99.90;;;;;;1831636;76;21154;-71
2022/07/22 11:32:22;;;;;;;5.92;2.52;;;25.50;99.90;;;;;;1859544;75;21149;-71
2022/07/22 11:34:55;;;;;;;6.17;2.17;;;25.50;99.90;;;;;;1855169;75;21228;-72
2022/07/22 11:37:27;;;;;;;3.62;2.00;;;25.50;99.90;;;;;;1848209;76;21213;-72
2022/07/22 11:40:01;;;;;;;4.33;2.08;;;25.50;99.90;;;;;;1849830;76;21074;-72
2022/07/22 11:42:34;;;;;;;3.42;2.00;;;25.50;99.90;;;;;;1843598;75;21674;-72
2022/07/22 11:45:06;;;;;;;4.62;2.10;;;25.60;99.90;;;;;;1853872;76;21114;-72
2022/07/22 11:47:37;;;;;;;4.22;2.40;;;25.50;99.90;;;;;;1863954;76;21159;-73
2022/07/22 11:50:09;;;;;;;5.17;1.87;;;25.60;99.90;;;;;;1852835;76;21212;-73
2022/07/22 11:52:40;;;;;;;5.37;2.50;;;25.60;99.90;;;;;;1856328;76;21192;-72
2022/07/22 11:55:13;;;;;;;6.00;2.70;;;25.60;99.90;;;;;;1858460;76;21197;-72
2022/07/22 11:57:46;;;;;;;3.80;2.35;;;25.50;99.90;;;;;;1861108;75;21061;-73
2022/07/22 12:00:18;;;;;;;5.15;2.65;;;25.60;99.90;;;;;;1853945;76;21171;-72
2022/07/22 12:02:49;;;;;;;4.30;2.20;;;25.60;99.90;;;;;;1846292;76;21183;-73
2022/07/22 12:05:21;;;;;;;4.55;2.60;;;25.60;99.90;;;;;;1850682;76;21689;-80
2022/07/22 12:07:53;;;;;;;6.03;3.02;;;25.60;99.90;;;;;;1847520;76;21155;-80
2022/07/22 12:10:25;;;;;;;5.55;3.20;;;25.60;99.90;;;;;;1854560;76;21118;-82
2022/07/22 12:12:56;;;;;;;4.80;2.70;;;25.70;99.90;;;;;;1853154;76;21170;-79
2022/07/22 12:15:28;;;;;;;6.15;2.65;;;25.70;99.90;;;;;;1849330;74;21203;-83
2022/07/22 12:18:02;;;;;;;8.05;3.42;;;25.70;99.90;;;;;;1852651;76;21621;-80
2022/07/22 12:20:36;;;;;;;6.85;3.52;;;25.70;99.90;;;;;;1850641;75;21660;-80
2022/07/22 12:23:10;;;;;;;7.67;3.40;;;25.70;99.90;;;;;;1841013;75;21148;-80
2022/07/22 12:25:44;;;;;;;6.72;3.05;;;25.80;99.90;;;;;;1862049;76;21700;-79
2022/07/22 12:28:19;;;;;;;8.50;3.25;;;25.80;99.90;;;;;;1853806;76;21169;-79
2022/07/22 12:30:51;;;;;;;5.28;3.05;;;25.80;99.90;;;;;;1827894;75;21201;-79
2022/07/22 12:33:23;;;;;;;7.35;2.98;;;25.80;99.90;;;;;;1848710;76;21242;-79
2022/07/22 12:35:56;;;;;;;4.08;2.62;;;25.90;99.90;;;;;;1842068;76;21182;-79
2022/07/22 12:38:36;;;;;;;6.03;3.00;;;25.90;99.90;;;;;;1856103;76;21182;-79
2022/07/22 12:41:11;;;;;;;5.33;2.90;;;25.90;99.90;;;;;;1863467;75;21264;-80
2022/07/22 12:43:44;;;;;;;5.45;3.55;;;25.90;99.90;;;;;;1852682;76;21282;-79
2022/07/22 12:46:20;;;;;;;11.20;3.10;;;25.90;99.90;;;;;;1843508;76;21175;-79
2022/07/22 12:48:59;;;;;;;6.95;3.33;;;25.90;99.90;;;;;;1837932;76;21167;-78
2022/07/22 12:51:36;;;;;;;9.00;3.55;;;25.90;99.90;;;;;;1847620;76;21154;-80
2022/07/22 12:54:07;;;;;;;6.45;3.20;;;25.90;99.90;;;;;;1854970;76;21658;-80
2022/07/22 12:56:46;;;;;;;8.05;3.65;;;25.90;99.90;;;;;;1856005;76;21144;-80
2022/07/22 12:59:29;;;;;;;7.47;3.65;;;25.90;99.90;;;;;;1852446;76;21195;-81
2022/07/22 13:02:49;;;;;;;6.87;3.25;;;25.90;99.90;;;;;;1841223;76;21118;-82
2022/07/22 13:04:49;;;;;;;7.15;3.75;;;25.90;99.90;;;;;;1826577;76;21055;-82
2022/07/22 13:07:21;;;;;;;7.90;3.70;;;26.00;99.90;;;;;;1840780;76;21141;-81
2022/07/22 13:09:53;;;;;;;9.23;3.27;;;25.90;99.90;;;;;;1855459;76;21621;-79